sensor_id;sensor_type;location;lat;lon;timestamp;temperature;humidity
24103;DHT22;12278;53.058;9.028;2024-03-02T00:00:16;7.90;99.90
24103;DHT22;12278;53.058;9.028;2024-03-02T00:04:18;7.80;99.90
24103;DHT22;12278;53.058;9.028;2024-03-02T00:08:22;7.90;99.90
24103;DHT22;12278;53.058;9.028;2024-03-02T00:12:23;7.90;99.90
24103;DHT22;12278;53.058;9.028;2024-03-02T00:16:23;7.90;99.90
24103;DHT22;12278;53.058;9.028;2024-03-02T00:20:24;7.90;99.90
24103;DHT22;12278;53.058;9.028;2024-03-02T00:24:31;7.70;99.90
24103;DHT22;12278;53.058;9.028;2024-03-02T00:28:33;7.60;99.90
24103;DHT22;12278;53.058;9.028;2024-03-02T00:32:34;7.60;99.90
24103;DHT22;12278;53.058;9.028;2024-03-02T00:36:34;7.60;99.90
24103;DHT22;12278;53.058;9.028;2024-03-02T00:40:35;7.50;99.90
24103;DHT22;12278;53.058;9.028;2024-03-02T00:44:35;7.50;99.90
24103;DHT22;12278;53.058;9.028;2024-03-02T00:48:38;7.50;99.90
24103;DHT22;12278;53.058;9.028;2024-03-02T00:52:39;7.40;99.90
24103;DHT22;12278;53.058;9.028;2024-03-02T00:56:40;7.40;99.90
24103;DHT22;12278;53.058;9.028;2024-03-02T01:00:41;7.30;99.90
24103;DHT22;12278;53.058;9.028;2024-03-02T01:04:42;7.30;99.90
24103;DHT22;12278;53.058;9.028;2024-03-02T01:08:42;7.40;99.90
24103;DHT22;12278;53.058;9.028;2024-03-02T01:12:43;7.40;99.90
24103;DHT22;12278;53.058;9.028;2024-03-02T01:16:43;7.40;99.90
24103;DHT22;12278;53.058;9.028;2024-03-02T01:20:44;7.30;99.90
24103;DHT22;12278;53.058;9.028;2024-03-02T01:24:45;7.30;99.90
24103;DHT22;12278;53.058;9.028;2024-03-02T01:28:45;7.30;99.90
24103;DHT22;12278;53.058;9.028;2024-03-02T01:32:46;7.30;99.90
24103;DHT22;12278;53.058;9.028;2024-03-02T01:36:46;7.20;99.90
24103;DHT22;12278;53.058;9.028;2024-03-02T01:40:47;7.20;99.90
24103;DHT22;12278;53.058;9.028;2024-03-02T01:44:47;7.20;99.90
24103;DHT22;12278;53.058;9.028;2024-03-02T01:48:48;7.20;99.90
24103;DHT22;12278;53.058;9.028;2024-03-02T01:52:48;7.20;99.90
24103;DHT22;12278;53.058;9.028;2024-03-02T01:56:49;7.10;99.90
24103;DHT22;12278;53.058;9.028;2024-03-02T02:00:49;7.20;99.90
24103;DHT22;12278;53.058;9.028;2024-03-02T02:04:50;7.40;99.90
24103;DHT22;12278;53.058;9.028;2024-03-02T02:08:51;7.40;99.90
24103;DHT22;12278;53.058;9.028;2024-03-02T02:12:52;7.50;99.90
24103;DHT22;12278;53.058;9.028;2024-03-02T02:16:52;7.40;99.90
24103;DHT22;12278;53.058;9.028;2024-03-02T02:20:53;7.40;99.90
24103;DHT22;12278;53.058;9.028;2024-03-02T02:24:53;7.30;99.90
24103;DHT22;12278;53.058;9.028;2024-03-02T02:28:54;7.30;99.90
24103;DHT22;12278;53.058;9.028;2024-03-02T02:32:54;7.30;99.90
24103;DHT22;12278;53.058;9.028;2024-03-02T02:36:55;7.20;99.90
24103;DHT22;12278;53.058;9.028;2024-03-02T02:40:57;7.10;99.90
24103;DHT22;12278;53.058;9.028;2024-03-02T02:44:57;7.20;99.90
24103;DHT22;12278;53.058;9.028;2024-03-02T02:48:57;7.10;99.90
24103;DHT22;12278;53.058;9.028;2024-03-02T02:52:58;7.00;99.90
24103;DHT22;12278;53.058;9.028;2024-03-02T02:56:58;6.80;99.90
24103;DHT22;12278;53.058;9.028;2024-03-02T03:00:59;6.70;99.90
24103;DHT22;12278;53.058;9.028;2024-03-02T03:05:00;6.50;99.90
24103;DHT22;12278;53.058;9.028;2024-03-02T03:09:00;6.40;99.90
24103;DHT22;12278;53.058;9.028;2024-03-02T03:13:01;6.50;99.90
24103;DHT22;12278;53.058;9.028;2024-03-02T03:17:01;6.60;99.90
24103;DHT22;12278;53.058;9.028;2024-03-02T03:21:02;6.70;99.90
24103;DHT22;12278;53.058;9.028;2024-03-02T03:25:02;6.80;99.90
24103;DHT22;12278;53.058;9.028;2024-03-02T03:29:03;6.90;99.90
24103;DHT22;12278;53.058;9.028;2024-03-02T03:33:04;7.00;99.90
24103;DHT22;12278;53.058;9.028;2024-03-02T03:37:08;7.00;99.90
24103;DHT22;12278;53.058;9.028;2024-03-02T03:41:09;7.10;99.90
24103;DHT22;12278;53.058;9.028;2024-03-02T03:45:10;7.10;99.90
24103;DHT22;12278;53.058;9.028;2024-03-02T03:49:10;7.10;99.90
24103;DHT22;12278;53.058;9.028;2024-03-02T03:53:11;7.10;99.90
24103;DHT22;12278;53.058;9.028;2024-03-02T03:57:12;7.10;99.90
24103;DHT22;12278;53.058;9.028;2024-03-02T04:01:12;7.20;99.90
24103;DHT22;12278;53.058;9.028;2024-03-02T04:05:13;7.20;99.90
24103;DHT22;12278;53.058;9.028;2024-03-02T04:09:13;7.20;99.90
24103;DHT22;12278;53.058;9.028;2024-03-02T04:13:14;7.20;99.90
24103;DHT22;12278;53.058;9.028;2024-03-02T04:17:14;7.30;99.90
24103;DHT22;12278;53.058;9.028;2024-03-02T04:21:15;7.20;99.90
24103;DHT22;12278;53.058;9.028;2024-03-02T04:25:15;7.30;99.90
24103;DHT22;12278;53.058;9.028;2024-03-02T04:29:16;7.30;99.90
24103;DHT22;12278;53.058;9.028;2024-03-02T04:33:16;7.40;99.90
24103;DHT22;12278;53.058;9.028;2024-03-02T04:37:17;7.40;99.90
24103;DHT22;12278;53.058;9.028;2024-03-02T04:41:17;7.30;99.90
24103;DHT22;12278;53.058;9.028;2024-03-02T04:45:18;7.30;99.90
24103;DHT22;12278;53.058;9.028;2024-03-02T04:49:18;7.40;99.90
24103;DHT22;12278;53.058;9.028;2024-03-02T04:53:19;7.30;99.90
24103;DHT22;12278;53.058;9.028;2024-03-02T04:57:19;7.30;99.90
24103;DHT22;12278;53.058;9.028;2024-03-02T05:01:20;7.30;99.90
24103;DHT22;12278;53.058;9.028;2024-03-02T05:05:20;7.20;99.90
24103;DHT22;12278;53.058;9.028;2024-03-02T05:09:21;7.10;99.90
24103;DHT22;12278;53.058;9.028;2024-03-02T05:13:22;7.10;99.90
24103;DHT22;12278;53.058;9.028;2024-03-02T05:17:22;7.00;99.90
24103;DHT22;12278;53.058;9.028;2024-03-02T05:21:23;7.00;99.90
24103;DHT22;12278;53.058;9.028;2024-03-02T05:25:23;7.00;99.90
24103;DHT22;12278;53.058;9.028;2024-03-02T05:29:24;7.00;99.90
24103;DHT22;12278;53.058;9.028;2024-03-02T05:33:25;6.90;99.90
24103;DHT22;12278;53.058;9.028;2024-03-02T05:37:25;6.90;99.90
24103;DHT22;12278;53.058;9.028;2024-03-02T05:41:26;6.80;99.90
24103;DHT22;12278;53.058;9.028;2024-03-02T05:45:26;6.80;99.90
24103;DHT22;12278;53.058;9.028;2024-03-02T05:49:27;6.80;99.90
24103;DHT22;12278;53.058;9.028;2024-03-02T05:53:27;6.70;99.90
24103;DHT22;12278;53.058;9.028;2024-03-02T05:57:28;6.70;99.90
24103;DHT22;12278;53.058;9.028;2024-03-02T06:01:44;6.70;99.90
24103;DHT22;12278;53.058;9.028;2024-03-02T06:05:44;6.70;99.90
24103;DHT22;12278;53.058;9.028;2024-03-02T06:09:45;6.70;99.90
24103;DHT22;12278;53.058;9.028;2024-03-02T06:13:48;6.70;99.90
24103;DHT22;12278;53.058;9.028;2024-03-02T06:17:49;6.70;99.90
24103;DHT22;12278;53.058;9.028;2024-03-02T06:21:49;6.70;99.90
24103;DHT22;12278;53.058;9.028;2024-03-02T06:25:50;6.70;99.90
24103;DHT22;12278;53.058;9.028;2024-03-02T06:29:50;6.80;99.90
24103;DHT22;12278;53.058;9.028;2024-03-02T06:33:51;6.80;99.90
24103;DHT22;12278;53.058;9.028;2024-03-02T06:37:52;6.90;99.90
24103;DHT22;12278;53.058;9.028;2024-03-02T06:41:52;7.00;99.90
24103;DHT22;12278;53.058;9.028;2024-03-02T06:45:53;7.10;99.90
24103;DHT22;12278;53.058;9.028;2024-03-02T06:49:53;7.20;99.90
24103;DHT22;12278;53.058;9.028;2024-03-02T06:53:54;7.40;99.90
24103;DHT22;12278;53.058;9.028;2024-03-02T06:57:55;7.50;99.90
24103;DHT22;12278;53.058;9.028;2024-03-02T07:01:56;7.50;99.90
24103;DHT22;12278;53.058;9.028;2024-03-02T07:05:57;7.70;99.90
24103;DHT22;12278;53.058;9.028;2024-03-02T07:09:57;7.80;99.90
24103;DHT22;12278;53.058;9.028;2024-03-02T07:13:58;7.90;99.90
24103;DHT22;12278;53.058;9.028;2024-03-02T07:17:58;7.90;99.90
24103;DHT22;12278;53.058;9.028;2024-03-02T07:21:59;8.00;99.90
24103;DHT22;12278;53.058;9.028;2024-03-02T07:25:59;8.10;99.90
24103;DHT22;12278;53.058;9.028;2024-03-02T07:30:02;8.20;99.90
24103;DHT22;12278;53.058;9.028;2024-03-02T07:34:03;8.40;99.90
24103;DHT22;12278;53.058;9.028;2024-03-02T07:38:03;8.70;99.90
24103;DHT22;12278;53.058;9.028;2024-03-02T07:42:04;8.90;99.90
24103;DHT22;12278;53.058;9.028;2024-03-02T07:46:06;9.10;99.90
24103;DHT22;12278;53.058;9.028;2024-03-02T07:50:07;9.20;99.90
24103;DHT22;12278;53.058;9.028;2024-03-02T07:54:08;9.20;99.90
24103;DHT22;12278;53.058;9.028;2024-03-02T07:58:08;9.20;99.90
24103;DHT22;12278;53.058;9.028;2024-03-02T08:02:09;9.40;99.90
24103;DHT22;12278;53.058;9.028;2024-03-02T08:06:10;9.50;99.90
24103;DHT22;12278;53.058;9.028;2024-03-02T08:10:10;9.70;99.90
24103;DHT22;12278;53.058;9.028;2024-03-02T08:14:11;9.80;99.90
24103;DHT22;12278;53.058;9.028;2024-03-02T08:18:12;9.70;99.90
24103;DHT22;12278;53.058;9.028;2024-03-02T08:22:12;9.50;99.90
24103;DHT22;12278;53.058;9.028;2024-03-02T08:26:13;9.30;99.90
24103;DHT22;12278;53.058;9.028;2024-03-02T08:30:13;9.20;99.90
24103;DHT22;12278;53.058;9.028;2024-03-02T08:34:14;9.20;99.90
24103;DHT22;12278;53.058;9.028;2024-03-02T08:38:14;9.20;99.90
24103;DHT22;12278;53.058;9.028;2024-03-02T08:42:15;9.20;99.90
24103;DHT22;12278;53.058;9.028;2024-03-02T08:46:15;9.20;99.90
24103;DHT22;12278;53.058;9.028;2024-03-02T08:50:16;9.20;99.90
24103;DHT22;12278;53.058;9.028;2024-03-02T08:54:17;9.30;99.90
24103;DHT22;12278;53.058;9.028;2024-03-02T08:58:17;9.30;99.90
24103;DHT22;12278;53.058;9.028;2024-03-02T09:02:18;9.40;99.90
24103;DHT22;12278;53.058;9.028;2024-03-02T09:06:18;9.40;99.90
24103;DHT22;12278;53.058;9.028;2024-03-02T09:10:20;9.60;99.90
24103;DHT22;12278;53.058;9.028;2024-03-02T09:14:21;9.80;99.90
24103;DHT22;12278;53.058;9.028;2024-03-02T09:18:21;9.90;99.90
24103;DHT22;12278;53.058;9.028;2024-03-02T09:22:22;10.00;99.90
24103;DHT22;12278;53.058;9.028;2024-03-02T09:26:23;10.30;99.90
24103;DHT22;12278;53.058;9.028;2024-03-02T09:30:25;10.80;99.90
24103;DHT22;12278;53.058;9.028;2024-03-02T09:34:25;11.40;99.90
24103;DHT22;12278;53.058;9.028;2024-03-02T09:38:26;11.60;99.90
24103;DHT22;12278;53.058;9.028;2024-03-02T09:42:26;12.30;99.90
24103;DHT22;12278;53.058;9.028;2024-03-02T09:46:27;12.60;99.90
24103;DHT22;12278;53.058;9.028;2024-03-02T09:50:27;12.30;99.90
24103;DHT22;12278;53.058;9.028;2024-03-02T09:54:28;12.40;99.90
24103;DHT22;12278;53.058;9.028;2024-03-02T09:58:29;12.30;99.90
24103;DHT22;12278;53.058;9.028;2024-03-02T10:02:29;12.70;99.90
24103;DHT22;12278;53.058;9.028;2024-03-02T10:06:30;13.20;99.90
24103;DHT22;12278;53.058;9.028;2024-03-02T10:10:37;13.30;99.90
24103;DHT22;12278;53.058;9.028;2024-03-02T10:14:40;13.30;99.90
24103;DHT22;12278;53.058;9.028;2024-03-02T10:18:41;13.40;99.90
24103;DHT22;12278;53.058;9.028;2024-03-02T10:22:42;13.40;99.90
24103;DHT22;12278;53.058;9.028;2024-03-02T10:26:42;13.10;99.90
24103;DHT22;12278;53.058;9.028;2024-03-02T10:30:43;13.00;99.90
24103;DHT22;12278;53.058;9.028;2024-03-02T10:34:47;12.90;99.90
24103;DHT22;12278;53.058;9.028;2024-03-02T10:38:49;12.70;99.90
24103;DHT22;12278;53.058;9.028;2024-03-02T10:42:50;12.70;99.90
24103;DHT22;12278;53.058;9.028;2024-03-02T10:46:52;13.10;99.90
24103;DHT22;12278;53.058;9.028;2024-03-02T10:50:53;13.00;99.90
24103;DHT22;12278;53.058;9.028;2024-03-02T10:54:53;13.20;99.90
24103;DHT22;12278;53.058;9.028;2024-03-02T10:59:36;12.90;99.90
24103;DHT22;12278;53.058;9.028;2024-03-02T11:03:20;13.20;99.90
24103;DHT22;12278;53.058;9.028;2024-03-02T11:07:21;13.30;99.90
24103;DHT22;12278;53.058;9.028;2024-03-02T11:11:25;13.70;99.90
24103;DHT22;12278;53.058;9.028;2024-03-02T11:15:28;13.70;99.90
24103;DHT22;12278;53.058;9.028;2024-03-02T11:19:28;13.90;99.90
24103;DHT22;12278;53.058;9.028;2024-03-02T11:23:33;14.10;99.90
24103;DHT22;12278;53.058;9.028;2024-03-02T11:31:59;14.90;99.90
24103;DHT22;12278;53.058;9.028;2024-03-02T11:36:02;15.20;99.90
24103;DHT22;12278;53.058;9.028;2024-03-02T11:40:03;14.70;99.90
24103;DHT22;12278;53.058;9.028;2024-03-02T11:44:04;16.10;99.90
24103;DHT22;12278;53.058;9.028;2024-03-02T11:48:05;16.40;99.90
24103;DHT22;12278;53.058;9.028;2024-03-02T11:52:06;16.50;99.90
24103;DHT22;12278;53.058;9.028;2024-03-02T11:56:10;16.60;99.60
24103;DHT22;12278;53.058;9.028;2024-03-02T12:00:19;17.20;99.10
24103;DHT22;12278;53.058;9.028;2024-03-02T12:04:19;16.90;98.20
24103;DHT22;12278;53.058;9.028;2024-03-02T12:08:20;17.20;99.10
24103;DHT22;12278;53.058;9.028;2024-03-02T12:12:21;17.20;97.40
24103;DHT22;12278;53.058;9.028;2024-03-02T12:16:25;16.70;96.70
24103;DHT22;12278;53.058;9.028;2024-03-02T12:20:27;16.60;97.70
24103;DHT22;12278;53.058;9.028;2024-03-02T12:24:28;16.80;96.90
24103;DHT22;12278;53.058;9.028;2024-03-02T12:28:29;17.20;97.80
24103;DHT22;12278;53.058;9.028;2024-03-02T12:32:29;16.60;96.60
24103;DHT22;12278;53.058;9.028;2024-03-02T12:36:30;17.00;97.00
24103;DHT22;12278;53.058;9.028;2024-03-02T12:40:30;17.40;96.80
24103;DHT22;12278;53.058;9.028;2024-03-02T12:44:32;17.30;96.90
24103;DHT22;12278;53.058;9.028;2024-03-02T12:48:32;17.40;95.20
24103;DHT22;12278;53.058;9.028;2024-03-02T12:52:33;17.30;96.10
24103;DHT22;12278;53.058;9.028;2024-03-02T12:56:37;17.00;95.30
24103;DHT22;12278;53.058;9.028;2024-03-02T13:00:37;16.60;96.40
24103;DHT22;12278;53.058;9.028;2024-03-02T13:04:38;17.00;96.40
24103;DHT22;12278;53.058;9.028;2024-03-02T13:08:38;16.90;96.60
24103;DHT22;12278;53.058;9.028;2024-03-02T13:12:39;17.20;95.90
24103;DHT22;12278;53.058;9.028;2024-03-02T13:16:40;17.20;95.60
24103;DHT22;12278;53.058;9.028;2024-03-02T13:20:40;17.40;96.20
24103;DHT22;12278;53.058;9.028;2024-03-02T13:24:41;17.50;96.50
24103;DHT22;12278;53.058;9.028;2024-03-02T13:28:42;17.70;95.80
24103;DHT22;12278;53.058;9.028;2024-03-02T13:32:43;17.60;95.90
24103;DHT22;12278;53.058;9.028;2024-03-02T13:36:43;17.90;96.60
24103;DHT22;12278;53.058;9.028;2024-03-02T13:40:44;18.10;95.40
24103;DHT22;12278;53.058;9.028;2024-03-02T13:44:45;18.40;94.80
24103;DHT22;12278;53.058;9.028;2024-03-02T13:48:48;18.50;94.10
24103;DHT22;12278;53.058;9.028;2024-03-02T13:52:49;18.20;93.90
24103;DHT22;12278;53.058;9.028;2024-03-02T13:56:49;19.20;92.70
24103;DHT22;12278;53.058;9.028;2024-03-02T14:00:50;19.00;92.90
24103;DHT22;12278;53.058;9.028;2024-03-02T14:04:50;19.10;92.60
24103;DHT22;12278;53.058;9.028;2024-03-02T14:08:51;18.70;92.40
24103;DHT22;12278;53.058;9.028;2024-03-02T14:12:51;18.80;92.60
24103;DHT22;12278;53.058;9.028;2024-03-02T14:16:52;19.20;92.00
24103;DHT22;12278;53.058;9.028;2024-03-02T14:20:53;19.00;91.80
24103;DHT22;12278;53.058;9.028;2024-03-02T14:24:53;19.10;92.30
24103;DHT22;12278;53.058;9.028;2024-03-02T14:28:54;18.70;92.70
24103;DHT22;12278;53.058;9.028;2024-03-02T14:32:54;19.20;91.10
24103;DHT22;12278;53.058;9.028;2024-03-02T14:36:55;19.50;91.90
24103;DHT22;12278;53.058;9.028;2024-03-02T14:40:56;20.10;90.50
24103;DHT22;12278;53.058;9.028;2024-03-02T14:44:56;19.70;90.00
24103;DHT22;12278;53.058;9.028;2024-03-02T14:48:57;20.10;89.40
24103;DHT22;12278;53.058;9.028;2024-03-02T14:52:58;19.90;89.90
24103;DHT22;12278;53.058;9.028;2024-03-02T14:56:58;19.80;90.20
24103;DHT22;12278;53.058;9.028;2024-03-02T15:00:59;19.20;90.50
24103;DHT22;12278;53.058;9.028;2024-03-02T15:05:00;18.90;90.80
24103;DHT22;12278;53.058;9.028;2024-03-02T15:09:00;19.40;91.50
24103;DHT22;12278;53.058;9.028;2024-03-02T15:13:02;19.60;90.80
24103;DHT22;12278;53.058;9.028;2024-03-02T15:17:03;19.70;89.60
24103;DHT22;12278;53.058;9.028;2024-03-02T15:21:04;19.70;90.20
24103;DHT22;12278;53.058;9.028;2024-03-02T15:25:05;19.40;89.40
24103;DHT22;12278;53.058;9.028;2024-03-02T15:29:05;19.00;90.30
24103;DHT22;12278;53.058;9.028;2024-03-02T15:33:06;18.90;91.10
24103;DHT22;12278;53.058;9.028;2024-03-02T15:37:06;19.00;90.40
24103;DHT22;12278;53.058;9.028;2024-03-02T15:41:07;18.80;90.30
24103;DHT22;12278;53.058;9.028;2024-03-02T15:45:07;18.00;91.60
24103;DHT22;12278;53.058;9.028;2024-03-02T15:49:08;17.80;91.40
24103;DHT22;12278;53.058;9.028;2024-03-02T15:53:08;17.40;92.50
24103;DHT22;12278;53.058;9.028;2024-03-02T15:57:09;17.40;92.40
24103;DHT22;12278;53.058;9.028;2024-03-02T16:01:09;17.00;92.80
24103;DHT22;12278;53.058;9.028;2024-03-02T16:05:10;16.80;93.80
24103;DHT22;12278;53.058;9.028;2024-03-02T16:09:11;15.80;95.20
24103;DHT22;12278;53.058;9.028;2024-03-02T16:13:11;15.10;96.90
24103;DHT22;12278;53.058;9.028;2024-03-02T16:17:12;14.50;98.50
24103;DHT22;12278;53.058;9.028;2024-03-02T16:21:12;14.40;99.90
24103;DHT22;12278;53.058;9.028;2024-03-02T16:25:14;14.10;99.90
24103;DHT22;12278;53.058;9.028;2024-03-02T16:29:14;14.00;99.90
24103;DHT22;12278;53.058;9.028;2024-03-02T16:33:15;13.90;99.90
24103;DHT22;12278;53.058;9.028;2024-03-02T16:37:17;13.70;99.90
24103;DHT22;12278;53.058;9.028;2024-03-02T16:41:18;13.60;99.90
24103;DHT22;12278;53.058;9.028;2024-03-02T16:45:19;13.50;99.90
24103;DHT22;12278;53.058;9.028;2024-03-02T16:49:20;13.40;99.90
24103;DHT22;12278;53.058;9.028;2024-03-02T16:53:20;13.30;99.90
24103;DHT22;12278;53.058;9.028;2024-03-02T16:57:21;13.20;99.90
24103;DHT22;12278;53.058;9.028;2024-03-02T17:01:22;13.10;99.90
24103;DHT22;12278;53.058;9.028;2024-03-02T17:05:22;13.10;99.90
24103;DHT22;12278;53.058;9.028;2024-03-02T17:09:23;12.90;99.90
24103;DHT22;12278;53.058;9.028;2024-03-02T17:13:23;12.80;99.90
24103;DHT22;12278;53.058;9.028;2024-03-02T17:17:24;12.80;99.90
24103;DHT22;12278;53.058;9.028;2024-03-02T17:21:24;12.70;99.90
24103;DHT22;12278;53.058;9.028;2024-03-02T17:25:25;12.70;99.90
24103;DHT22;12278;53.058;9.028;2024-03-02T17:29:25;12.60;99.90
24103;DHT22;12278;53.058;9.028;2024-03-02T17:33:26;12.60;99.90
24103;DHT22;12278;53.058;9.028;2024-03-02T17:37:26;12.40;99.90
24103;DHT22;12278;53.058;9.028;2024-03-02T17:41:27;12.30;99.90
24103;DHT22;12278;53.058;9.028;2024-03-02T17:45:28;12.30;99.90
24103;DHT22;12278;53.058;9.028;2024-03-02T17:49:28;12.30;99.90
24103;DHT22;12278;53.058;9.028;2024-03-02T17:53:29;12.20;99.90
24103;DHT22;12278;53.058;9.028;2024-03-02T17:57:30;12.20;99.90
24103;DHT22;12278;53.058;9.028;2024-03-02T18:01:30;12.20;99.90
24103;DHT22;12278;53.058;9.028;2024-03-02T18:05:31;12.30;99.90
24103;DHT22;12278;53.058;9.028;2024-03-02T18:09:31;12.40;99.90
24103;DHT22;12278;53.058;9.028;2024-03-02T18:13:32;12.30;99.90
24103;DHT22;12278;53.058;9.028;2024-03-02T18:17:34;12.40;99.90
24103;DHT22;12278;53.058;9.028;2024-03-02T18:21:35;12.20;99.90
24103;DHT22;12278;53.058;9.028;2024-03-02T18:25:36;12.20;99.90
24103;DHT22;12278;53.058;9.028;2024-03-02T18:29:37;12.10;99.90
24103;DHT22;12278;53.058;9.028;2024-03-02T18:33:38;12.10;99.90
24103;DHT22;12278;53.058;9.028;2024-03-02T18:37:38;12.00;99.90
24103;DHT22;12278;53.058;9.028;2024-03-02T18:41:39;11.90;99.90
24103;DHT22;12278;53.058;9.028;2024-03-02T18:45:48;11.80;99.90
24103;DHT22;12278;53.058;9.028;2024-03-02T18:49:48;11.90;99.90
24103;DHT22;12278;53.058;9.028;2024-03-02T18:53:49;11.80;99.90
24103;DHT22;12278;53.058;9.028;2024-03-02T18:57:49;11.80;99.90
24103;DHT22;12278;53.058;9.028;2024-03-02T19:01:50;11.70;99.90
24103;DHT22;12278;53.058;9.028;2024-03-02T19:05:50;11.60;99.90
24103;DHT22;12278;53.058;9.028;2024-03-02T19:09:51;11.60;99.90
24103;DHT22;12278;53.058;9.028;2024-03-02T19:13:52;11.50;99.90
24103;DHT22;12278;53.058;9.028;2024-03-02T19:17:53;11.40;99.90
24103;DHT22;12278;53.058;9.028;2024-03-02T19:21:53;11.40;99.90
24103;DHT22;12278;53.058;9.028;2024-03-02T19:25:54;11.40;99.90
24103;DHT22;12278;53.058;9.028;2024-03-02T19:29:54;11.40;99.90
24103;DHT22;12278;53.058;9.028;2024-03-02T19:33:55;11.40;99.90
24103;DHT22;12278;53.058;9.028;2024-03-02T19:37:56;11.40;99.90
24103;DHT22;12278;53.058;9.028;2024-03-02T19:41:56;11.30;99.90
24103;DHT22;12278;53.058;9.028;2024-03-02T19:45:59;11.20;99.90
24103;DHT22;12278;53.058;9.028;2024-03-02T19:50:00;11.20;99.90
24103;DHT22;12278;53.058;9.028;2024-03-02T19:54:00;11.10;99.90
24103;DHT22;12278;53.058;9.028;2024-03-02T19:58:03;11.10;99.90
24103;DHT22;12278;53.058;9.028;2024-03-02T20:02:04;11.10;99.90
24103;DHT22;12278;53.058;9.028;2024-03-02T20:06:10;11.10;99.90
24103;DHT22;12278;53.058;9.028;2024-03-02T20:10:11;11.10;99.90
24103;DHT22;12278;53.058;9.028;2024-03-02T20:14:11;11.10;99.90
24103;DHT22;12278;53.058;9.028;2024-03-02T20:18:12;10.90;99.90
24103;DHT22;12278;53.058;9.028;2024-03-02T20:22:13;10.90;99.90
24103;DHT22;12278;53.058;9.028;2024-03-02T20:26:13;10.80;99.90
24103;DHT22;12278;53.058;9.028;2024-03-02T20:30:14;10.80;99.90
24103;DHT22;12278;53.058;9.028;2024-03-02T20:34:15;10.80;99.90
24103;DHT22;12278;53.058;9.028;2024-03-02T20:38:18;10.80;99.90
24103;DHT22;12278;53.058;9.028;2024-03-02T20:42:18;10.60;99.90
24103;DHT22;12278;53.058;9.028;2024-03-02T20:46:19;10.70;99.90
24103;DHT22;12278;53.058;9.028;2024-03-02T20:50:19;10.70;99.90
24103;DHT22;12278;53.058;9.028;2024-03-02T20:54:20;10.60;99.90
24103;DHT22;12278;53.058;9.028;2024-03-02T20:58:20;10.50;99.90
24103;DHT22;12278;53.058;9.028;2024-03-02T21:02:21;10.40;99.90
24103;DHT22;12278;53.058;9.028;2024-03-02T21:06:21;10.40;99.90
24103;DHT22;12278;53.058;9.028;2024-03-02T21:10:22;10.30;99.90
24103;DHT22;12278;53.058;9.028;2024-03-02T21:14:22;10.30;99.90
24103;DHT22;12278;53.058;9.028;2024-03-02T21:18:23;10.30;99.90
24103;DHT22;12278;53.058;9.028;2024-03-02T21:22:23;10.30;99.90
24103;DHT22;12278;53.058;9.028;2024-03-02T21:26:24;10.30;99.90
24103;DHT22;12278;53.058;9.028;2024-03-02T21:30:25;10.30;99.90
24103;DHT22;12278;53.058;9.028;2024-03-02T21:34:26;10.20;99.90
24103;DHT22;12278;53.058;9.028;2024-03-02T21:38:26;10.20;99.90
24103;DHT22;12278;53.058;9.028;2024-03-02T21:42:27;10.10;99.90
24103;DHT22;12278;53.058;9.028;2024-03-02T21:46:37;10.10;99.90
24103;DHT22;12278;53.058;9.028;2024-03-02T21:50:38;10.00;99.90
24103;DHT22;12278;53.058;9.028;2024-03-02T21:54:38;10.00;99.90
24103;DHT22;12278;53.058;9.028;2024-03-02T21:58:39;10.00;99.90
24103;DHT22;12278;53.058;9.028;2024-03-02T22:02:40;9.90;99.90
24103;DHT22;12278;53.058;9.028;2024-03-02T22:06:40;9.70;99.90
24103;DHT22;12278;53.058;9.028;2024-03-02T22:10:41;9.70;99.90
24103;DHT22;12278;53.058;9.028;2024-03-02T22:14:41;9.60;99.90
24103;DHT22;12278;53.058;9.028;2024-03-02T22:18:42;9.50;99.90
24103;DHT22;12278;53.058;9.028;2024-03-02T22:22:42;9.50;99.90
24103;DHT22;12278;53.058;9.028;2024-03-02T22:26:43;9.60;99.90
24103;DHT22;12278;53.058;9.028;2024-03-02T22:30:44;9.60;99.90
24103;DHT22;12278;53.058;9.028;2024-03-02T22:34:44;9.60;99.90
24103;DHT22;12278;53.058;9.028;2024-03-02T22:38:45;9.60;99.90
24103;DHT22;12278;53.058;9.028;2024-03-02T22:42:46;9.60;99.90
24103;DHT22;12278;53.058;9.028;2024-03-02T22:46:46;9.60;99.90
24103;DHT22;12278;53.058;9.028;2024-03-02T22:50:47;9.60;99.90
24103;DHT22;12278;53.058;9.028;2024-03-02T22:54:47;9.40;99.90
24103;DHT22;12278;53.058;9.028;2024-03-02T22:58:48;9.40;99.90
24103;DHT22;12278;53.058;9.028;2024-03-02T23:02:48;9.40;99.90
24103;DHT22;12278;53.058;9.028;2024-03-02T23:06:49;9.40;99.90
24103;DHT22;12278;53.058;9.028;2024-03-02T23:10:49;9.50;99.90
24103;DHT22;12278;53.058;9.028;2024-03-02T23:14:50;9.50;99.90
24103;DHT22;12278;53.058;9.028;2024-03-02T23:18:50;9.50;99.90
24103;DHT22;12278;53.058;9.028;2024-03-02T23:22:51;9.40;99.90
24103;DHT22;12278;53.058;9.028;2024-03-02T23:26:51;9.40;99.90
24103;DHT22;12278;53.058;9.028;2024-03-02T23:30:52;9.30;99.90
24103;DHT22;12278;53.058;9.028;2024-03-02T23:34:53;9.30;99.90
24103;DHT22;12278;53.058;9.028;2024-03-02T23:38:54;9.30;99.90
24103;DHT22;12278;53.058;9.028;2024-03-02T23:42:55;9.10;99.90
24103;DHT22;12278;53.058;9.028;2024-03-02T23:46:55;9.00;99.90
24103;DHT22;12278;53.058;9.028;2024-03-02T23:50:56;9.00;99.90
24103;DHT22;12278;53.058;9.028;2024-03-02T23:54:56;9.00;99.90
24103;DHT22;12278;53.058;9.028;2024-03-02T23:58:57;8.90;99.90
